Time;durP1;ratioP1;P1;durP2;ratioP2;P2;SDS_P1;SDS_P2;PMS_P1;PMS_P2;Temp;Humidity;BMP_temperature;BMP_pressure;BME280_temperature;BME280_humidity;BME280_pressure;Samples;Min_cycle;Max_cycle;Signal;HPM_P1;HPM_P2
2022/05/11 00:00:42;;;;;;;;;;;;;;;10.60;65.52;101258.16;6208034;23;19946;-78
2022/05/11 00:03:07;;;;;;;;;;;;;;;10.55;66.63;101257.78;6181426;23;19987;-78
2022/05/11 00:05:33;;;;;;;;;;;;;;;10.34;67.88;101256.13;6180799;23;19954;-79
2022/05/11 00:07:59;;;;;;;;;;;;;;;10.41;67.46;101252.88;6181417;23;19963;-78
2022/05/11 00:10:24;;;;;;;;;;;;;;;10.40;67.46;101251.19;6181668;23;19918;-78
2022/05/11 00:12:51;;;;;;;;;;;;;;;10.41;67.50;101252.88;6181017;23;19927;-78
2022/05/11 00:15:17;;;;;;;;;;;;;;;10.34;67.67;101252.59;6207637;23;19945;-77
2022/05/11 00:17:45;;;;;;;;;;;;;;;10.19;67.91;101254.84;6208132;22;19919;-78
2022/05/11 00:20:11;;;;;;;;;;;;;;;10.14;67.97;101249.06;6207061;23;20327;-77
2022/05/11 00:22:36;;;;;;;;;;;;;;;10.22;67.59;101259.09;6182195;23;20336;-78
2022/05/11 00:25:03;;;;;;;;;;;;;;;10.08;67.90;101246.94;6207550;23;19943;-78
2022/05/11 00:27:28;;;;;;;;;;;;;;;9.94;68.44;101259.81;6207854;23;19912;-77
2022/05/11 00:29:53;;;;;;;;;;;;;;;9.91;68.52;101252.06;6184324;23;19919;-77
2022/05/11 00:32:19;;;;;;;;;;;;;;;9.97;68.55;101244.41;6209846;23;19982;-78
2022/05/11 00:34:44;;;;;;;;;;;;;;;9.98;68.34;101246.13;6180186;23;19920;-78
2022/05/11 00:37:10;;;;;;;;;;;;;;;9.85;68.76;101247.25;6181631;23;19912;-77
2022/05/11 00:39:35;;;;;;;;;;;;;;;9.74;69.30;101244.72;6156407;23;20253;-77
2022/05/11 00:42:01;;;;;;;;;;;;;;;9.96;68.43;101242.72;6181525;23;19912;-78
2022/05/11 00:44:26;;;;;;;;;;;;;;;9.89;68.35;101239.75;6157253;23;19922;-78
2022/05/11 00:46:59;;;;;;;;;;;;;;;9.89;68.35;101237.06;6182061;23;19919;-78
2022/05/11 00:49:44;;;;;;;;;;;;;;;9.91;68.37;101237.78;6155641;23;19999;-79
2022/05/11 00:52:19;;;;;;;;;;;;;;;9.89;68.38;101234.38;6182839;22;19915;-78
2022/05/11 00:54:47;;;;;;;;;;;;;;;9.93;68.54;101233.97;6208046;23;19912;-78
2022/05/11 00:57:16;;;;;;;;;;;;;;;9.94;68.64;101230.28;6155669;23;19923;-79
2022/05/11 00:59:42;;;;;;;;;;;;;;;9.98;68.58;101230.00;6156657;23;20252;-79
2022/05/11 01:02:12;;;;;;;;;;;;;;;9.89;69.01;101227.16;6181487;23;19912;-78
2022/05/11 01:04:38;;;;;;;;;;;;;;;9.83;69.29;101217.03;6207737;23;20002;-78
2022/05/11 01:07:05;;;;;;;;;;;;;;;9.84;69.46;101218.69;6156662;23;19927;-78
2022/05/11 01:09:31;;;;;;;;;;;;;;;9.88;69.31;101220.13;6179613;23;19916;-79
2022/05/11 01:11:57;;;;;;;;;;;;;;;9.86;69.59;101222.09;6180553;22;19987;-78
2022/05/11 01:14:26;;;;;;;;;;;;;;;9.66;70.45;101217.72;6156263;23;19966;-77
2022/05/11 01:16:51;;;;;;;;;;;;;;;9.65;70.78;101216.03;6181903;22;19987;-80
2022/05/11 01:19:30;;;;;;;;;;;;;;;9.70;70.47;101211.91;6181530;23;20326;-78
2022/05/11 01:21:57;;;;;;;;;;;;;;;9.72;70.49;101217.16;6181776;23;19922;-78
2022/05/11 01:24:27;;;;;;;;;;;;;;;9.64;70.50;101212.47;6181276;22;19935;-79
2022/05/11 01:26:54;;;;;;;;;;;;;;;9.60;70.44;101216.44;6156507;23;19919;-79
2022/05/11 01:29:19;;;;;;;;;;;;;;;9.57;70.55;101210.50;6156170;23;19915;-78
2022/05/11 01:31:45;;;;;;;;;;;;;;;9.63;70.32;101220.69;6156653;23;20366;-78
2022/05/11 01:34:10;;;;;;;;;;;;;;;9.68;70.00;101218.44;6206927;23;19919;-79
2022/05/11 01:36:35;;;;;;;;;;;;;;;9.64;70.16;101219.69;6180994;23;19912;-79
2022/05/11 01:39:06;;;;;;;;;;;;;;;9.66;70.03;101217.72;6207990;23;20304;-79
2022/05/11 01:41:39;;;;;;;;;;;;;;;9.64;70.01;101215.16;6206200;23;19912;-79
2022/05/11 01:44:06;;;;;;;;;;;;;;;9.68;69.82;101213.06;6181548;23;19921;-78
2022/05/11 01:46:33;;;;;;;;;;;;;;;9.68;69.74;101213.91;6180861;23;19912;-78
2022/05/11 01:48:58;;;;;;;;;;;;;;;9.59;70.03;101211.22;6179772;23;19986;-78
2022/05/11 01:51:23;;;;;;;;;;;;;;;9.56;70.05;101211.50;6180952;23;20101;-78
2022/05/11 01:53:49;;;;;;;;;;;;;;;9.66;69.82;101215.03;6182084;23;19916;-80
2022/05/11 01:56:19;;;;;;;;;;;;;;;9.52;70.39;101217.13;6182770;23;19916;-78
2022/05/11 01:58:45;;;;;;;;;;;;;;;9.53;70.28;101220.69;6208504;23;19985;-79
2022/05/11 02:01:11;;;;;;;;;;;;;;;9.47;70.44;101223.94;6182458;23;19924;-78
2022/05/11 02:03:37;;;;;;;;;;;;;;;9.54;70.38;101221.53;6206947;23;19912;-78
2022/05/11 02:08:47;;;;;;;;;;;;;;;9.37;70.98;101221.22;6209245;23;19919;-77
2022/05/11 02:11:14;;;;;;;;;;;;;;;9.46;70.79;101220.41;6182365;23;19908;-79
2022/05/11 02:13:39;;;;;;;;;;;;;;;9.52;70.53;101222.50;6207558;23;19916;-78
2022/05/11 02:16:05;;;;;;;;;;;;;;;9.48;70.93;101223.78;6182554;23;19912;-79
2022/05/11 02:18:30;;;;;;;;;;;;;;;9.58;70.75;101213.06;6157241;23;20337;-79
2022/05/11 02:20:55;;;;;;;;;;;;;;;9.50;71.07;101215.59;6207430;23;19962;-78
2022/05/11 02:23:21;;;;;;;;;;;;;;;9.43;71.35;101214.44;6181914;23;19920;-78
2022/05/11 02:25:47;;;;;;;;;;;;;;;9.50;71.26;101216.47;6207779;23;19928;-78
2022/05/11 02:28:13;;;;;;;;;;;;;;;9.45;71.44;101213.31;6207694;23;20289;-78
2022/05/11 02:30:41;;;;;;;;;;;;;;;9.31;71.96;101219.09;6181704;23;19927;-78
2022/05/11 02:33:06;;;;;;;;;;;;;;;9.31;71.80;101221.78;6157799;23;19943;-78
2022/05/11 02:35:32;;;;;;;;;;;;;;;9.43;71.55;101226.03;6184207;23;19915;-79
2022/05/11 02:37:59;;;;;;;;;;;;;;;9.56;71.02;101225.78;6181572;22;19920;-78
2022/05/11 02:40:26;;;;;;;;;;;;;;;9.77;70.67;101225.63;6208584;23;20359;-78
2022/05/11 02:42:52;;;;;;;;;;;;;;;9.83;69.67;101225.06;6180478;23;19916;-78
2022/05/11 02:45:19;;;;;;;;;;;;;;;9.96;69.28;101227.44;6207886;23;19942;-77
2022/05/11 02:47:45;;;;;;;;;;;;;;;9.80;69.38;101228.03;6155592;23;20056;-78
2022/05/11 02:50:11;;;;;;;;;;;;;;;9.87;69.24;101221.09;6207280;23;20348;-78
2022/05/11 02:52:37;;;;;;;;;;;;;;;9.96;68.78;101215.88;6154945;23;19940;-78
2022/05/11 02:55:03;;;;;;;;;;;;;;;9.98;68.82;101224.63;6206623;23;19912;-78
2022/05/11 02:57:28;;;;;;;;;;;;;;;10.12;68.43;101221.50;6180329;23;19969;-78
2022/05/11 02:59:54;;;;;;;;;;;;;;;10.07;68.45;101223.78;6181430;23;20233;-77
2022/05/11 03:02:20;;;;;;;;;;;;;;;10.14;68.48;101227.59;6181427;22;19916;-78
2022/05/11 03:04:46;;;;;;;;;;;;;;;10.15;68.28;101223.88;6156064;23;19919;-77
2022/05/11 03:07:13;;;;;;;;;;;;;;;10.22;67.90;101224.16;6207398;23;20253;-77
2022/05/11 03:09:39;;;;;;;;;;;;;;;9.94;68.77;101224.91;6180701;23;19926;-79
2022/05/11 03:12:07;;;;;;;;;;;;;;;10.01;68.68;101224.34;6207055;23;19975;-78
2022/05/11 03:14:32;;;;;;;;;;;;;;;9.99;68.75;101227.16;6179928;23;20303;-78
2022/05/11 03:16:59;;;;;;;;;;;;;;;10.01;68.78;101224.34;6181424;23;19916;-79
2022/05/11 03:19:25;;;;;;;;;;;;;;;10.16;68.46;101225.59;6207472;23;19919;-78
2022/05/11 03:21:51;;;;;;;;;;;;;;;10.16;68.26;101220.22;6157171;23;19916;-79
2022/05/11 03:24:17;;;;;;;;;;;;;;;10.32;67.67;101223.19;6207823;23;19919;-79
2022/05/11 03:26:42;;;;;;;;;;;;;;;10.33;67.56;101227.56;6180289;23;19915;-78
2022/05/11 03:29:11;;;;;;;;;;;;;;;10.49;67.12;101223.44;6181453;23;19912;-78
2022/05/11 03:31:37;;;;;;;;;;;;;;;10.66;66.71;101225.31;6181240;22;19939;-80
2022/05/11 03:36:47;;;;;;;;;;;;;;;10.74;65.92;101221.88;6184800;23;20342;-77
2022/05/11 03:39:18;;;;;;;;;;;;;;;10.85;65.59;101223.56;6207866;23;19965;-78
2022/05/11 03:41:47;;;;;;;;;;;;;;;10.98;65.25;101216.00;6206291;23;19919;-80
2022/05/11 03:44:13;;;;;;;;;;;;;;;10.96;64.99;101226.06;6156223;23;19908;-78
2022/05/11 03:46:39;;;;;;;;;;;;;;;11.13;64.34;101222.53;6207489;23;19916;-77
2022/05/11 03:49:11;;;;;;;;;;;;;;;11.25;63.42;101225.03;6207060;23;19935;-79
2022/05/11 03:51:38;;;;;;;;;;;;;;;11.39;63.12;101227.19;6180814;23;19930;-78
2022/05/11 03:54:07;;;;;;;;;;;;;;;11.18;63.36;101225.63;6181610;23;20329;-77
2022/05/11 03:56:33;;;;;;;;;;;;;;;11.33;63.07;101230.47;6206115;23;20328;-80
2022/05/11 03:58:58;;;;;;;;;;;;;;;11.21;63.29;101232.53;6156277;23;19907;-77
2022/05/11 04:01:25;;;;;;;;;;;;;;;11.38;63.17;101236.28;6179322;23;20284;-77
2022/05/11 04:03:51;;;;;;;;;;;;;;;11.48;62.89;101231.66;6180562;23;19916;-77
2022/05/11 04:06:17;;;;;;;;;;;;;;;11.30;64.45;101231.63;6205276;23;19919;-78
2022/05/11 04:08:42;;;;;;;;;;;;;;;11.36;64.27;101232.88;6180893;23;19931;-78
2022/05/11 04:11:11;;;;;;;;;;;;;;;11.39;63.99;101243.34;6181573;22;19923;-78
2022/05/11 04:13:38;;;;;;;;;;;;;;;11.57;63.59;101235.28;6155798;22;20186;-80
2022/05/11 04:16:04;;;;;;;;;;;;;;;11.75;62.98;101236.16;6206948;23;19923;-77
2022/05/11 04:18:30;;;;;;;;;;;;;;;11.79;63.65;101234.81;6180782;23;19916;-79
2022/05/11 04:20:58;;;;;;;;;;;;;;;11.91;63.15;101240.84;6180159;23;19935;-79
2022/05/11 04:23:23;;;;;;;;;;;;;;;11.99;62.48;101243.63;6207006;23;19920;-80
2022/05/11 04:25:49;;;;;;;;;;;;;;;12.02;61.78;101243.28;6207440;23;19912;-77
2022/05/11 04:28:15;;;;;;;;;;;;;;;11.90;61.46;101249.94;6181085;23;19961;-79
2022/05/11 04:30:42;;;;;;;;;;;;;;;11.74;61.53;101247.91;6180945;23;20190;-79
2022/05/11 04:33:09;;;;;;;;;;;;;;;11.90;61.41;101247.25;6156155;22;21327;-80
2022/05/11 04:35:36;;;;;;;;;;;;;;;12.50;60.14;101259.13;6156422;23;19919;-82
2022/05/11 04:38:02;;;;;;;;;;;;;;;13.10;58.13;101251.84;6184409;23;19992;-78
2022/05/11 04:40:27;;;;;;;;;;;;;;;13.59;56.69;101248.47;6164183;23;20225;-80
2022/05/11 04:42:53;;;;;;;;;;;;;;;13.87;55.75;101250.88;6180763;22;20386;-78
2022/05/11 04:45:20;;;;;;;;;;;;;;;14.22;54.79;101252.38;6155631;23;19916;-80
2022/05/11 04:47:45;;;;;;;;;;;;;;;14.43;53.91;101251.84;6206523;23;20006;-77
2022/05/11 04:50:10;;;;;;;;;;;;;;;14.76;53.29;101249.09;6180663;23;19935;-79
2022/05/11 04:52:37;;;;;;;;;;;;;;;15.24;52.01;101246.34;6180852;23;19943;-79
2022/05/11 04:55:04;;;;;;;;;;;;;;;15.39;51.63;101250.84;6180233;23;19912;-80
2022/05/11 04:57:29;;;;;;;;;;;;;;;15.81;50.82;101244.16;6180792;23;19916;-80
2022/05/11 04:59:56;;;;;;;;;;;;;;;15.70;50.15;101247.28;6180492;23;20301;-77
2022/05/11 05:02:23;;;;;;;;;;;;;;;15.96;49.77;101256.91;6207266;23;19986;-79
2022/05/11 05:04:50;;;;;;;;;;;;;;;16.39;48.82;101259.94;6180891;23;19997;-78
2022/05/11 05:07:15;;;;;;;;;;;;;;;16.61;48.37;101261.72;6181084;23;19912;-77
2022/05/11 05:09:44;;;;;;;;;;;;;;;16.52;48.90;101262.84;6180647;23;20535;-80
2022/05/11 05:12:10;;;;;;;;;;;;;;;16.75;48.14;101264.66;6180787;23;20317;-79
2022/05/11 05:14:35;;;;;;;;;;;;;;;16.92;47.87;101263.44;6206228;23;19916;-78
2022/05/11 05:17:02;;;;;;;;;;;;;;;17.09;47.48;101264.94;6180376;23;19916;-81
2022/05/11 05:19:28;;;;;;;;;;;;;;;17.48;46.95;101262.91;6180656;23;20363;-80
2022/05/11 05:21:53;;;;;;;;;;;;;;;17.26;46.71;101276.44;6156957;23;19912;-79
2022/05/11 05:24:19;;;;;;;;;;;;;;;17.30;46.55;101276.88;6207769;23;20266;-80
2022/05/11 05:26:51;;;;;;;;;;;;;;;17.08;47.41;101274.13;6182184;23;19912;-80
2022/05/11 05:32:00;;;;;;;;;;;;;;;17.08;47.32;101276.84;6185010;23;20014;-79
2022/05/11 05:34:26;;;;;;;;;;;;;;;17.52;46.74;101275.91;6159273;23;19912;-78
2022/05/11 05:36:52;;;;;;;;;;;;;;;17.57;46.81;101277.22;6157157;23;19942;-77
2022/05/11 05:39:17;;;;;;;;;;;;;;;17.40;46.78;101274.72;6206343;23;20319;-78
2022/05/11 05:41:43;;;;;;;;;;;;;;;17.57;46.84;101279.94;6179664;23;19943;-75
2022/05/11 05:44:08;;;;;;;;;;;;;;;17.70;46.38;101283.66;6206887;23;19912;-77
2022/05/11 05:46:34;;;;;;;;;;;;;;;17.98;46.15;101284.78;6179544;23;19969;-77
2022/05/11 05:49:00;;;;;;;;;;;;;;;17.95;46.43;101285.19;6179489;23;19923;-78
2022/05/11 05:51:26;;;;;;;;;;;;;;;18.13;45.92;101288.28;6180538;23;19923;-78
2022/05/11 05:53:51;;;;;;;;;;;;;;;18.32;45.66;101295.78;6180483;23;19918;-78
2022/05/11 05:56:17;;;;;;;;;;;;;;;18.57;45.29;101300.78;6156277;23;19949;-77
2022/05/11 05:58:44;;;;;;;;;;;;;;;18.49;45.34;101292.75;6177951;23;19939;-76
2022/05/11 06:01:09;;;;;;;;;;;;;;;19.02;44.36;101295.88;6207388;23;19912;-77
2022/05/11 06:03:35;;;;;;;;;;;;;;;19.21;43.65;101293.44;6180409;22;19927;-77
2022/05/11 06:06:00;;;;;;;;;;;;;;;20.14;42.37;101286.38;6155226;23;19923;-76
2022/05/11 06:08:29;;;;;;;;;;;;;;;20.57;40.90;101287.88;6207218;23;19988;-77
2022/05/11 06:10:55;;;;;;;;;;;;;;;20.26;41.21;101294.78;6206520;23;19908;-77
2022/05/11 06:13:22;;;;;;;;;;;;;;;20.90;39.97;101289.72;6206368;23;19922;-75
2022/05/11 06:15:51;;;;;;;;;;;;;;;21.22;38.46;101288.75;6175015;23;19916;-76
2022/05/11 06:18:18;;;;;;;;;;;;;;;21.71;37.33;101295.50;6177138;22;19912;-75
2022/05/11 06:20:51;;;;;;;;;;;;;;;21.92;35.42;101290.75;6175438;23;19973;-76
2022/05/11 06:23:16;;;;;;;;;;;;;;;22.11;34.50;101294.41;6174820;23;19995;-77
2022/05/11 06:25:42;;;;;;;;;;;;;;;22.12;34.17;101288.72;6176319;23;19940;-77
2022/05/11 06:28:08;;;;;;;;;;;;;;;22.21;33.63;101291.19;6175602;23;19948;-76
2022/05/11 06:30:37;;;;;;;;;;;;;;;21.98;33.64;101298.06;6205280;23;19912;-75
2022/05/11 06:33:03;;;;;;;;;;;;;;;22.03;33.34;101295.53;6206845;23;19962;-74
2022/05/11 06:35:28;;;;;;;;;;;;;;;22.27;33.44;101284.84;6154005;23;20011;-76
2022/05/11 06:37:54;;;;;;;;;;;;;;;22.13;33.06;101286.81;6180443;23;19994;-76
2022/05/11 06:40:21;;;;;;;;;;;;;;;22.52;32.53;101284.81;6181471;23;20068;-76
2022/05/11 06:42:48;;;;;;;;;;;;;;;22.63;32.69;101280.50;6156863;23;20014;-75
2022/05/11 06:45:14;;;;;;;;;;;;;;;22.93;32.36;101289.66;6182443;22;19912;-78
2022/05/11 06:47:41;;;;;;;;;;;;;;;23.33;32.04;101286.47;6180904;23;19987;-77
2022/05/11 06:50:06;;;;;;;;;;;;;;;23.10;32.58;101289.09;6206565;23;19939;-76
2022/05/11 06:52:32;;;;;;;;;;;;;;;22.93;32.55;101286.94;6154321;23;20317;-76
2022/05/11 07:00:32;;;;;;;;;;;;;;;23.92;31.20;101288.66;6205708;23;20363;-75
2022/05/11 07:02:57;;;;;;;;;;;;;;;23.76;31.57;101287.41;6178993;23;19912;-76
2022/05/11 07:05:23;;;;;;;;;;;;;;;24.27;31.11;101285.97;6204800;22;19935;-75
2022/05/11 07:07:51;;;;;;;;;;;;;;;24.56;30.61;101281.50;6181213;23;19997;-77
2022/05/11 07:10:17;;;;;;;;;;;;;;;24.75;30.61;101278.63;6207932;23;19973;-76
2022/05/11 07:12:46;;;;;;;;;;;;;;;24.65;30.49;101281.97;6180525;23;19911;-76
2022/05/11 07:15:13;;;;;;;;;;;;;;;24.92;30.03;101285.06;6155532;23;19955;-76
2022/05/11 07:17:47;;;;;;;;;;;;;;;25.07;29.46;101281.78;6180319;23;19912;-77
2022/05/11 07:20:17;;;;;;;;;;;;;;;24.69;30.48;101285.91;6180331;23;19987;-76
2022/05/11 07:22:42;;;;;;;;;;;;;;;24.72;30.10;101274.44;6157635;22;20363;-76
2022/05/11 07:25:09;;;;;;;;;;;;;;;25.02;30.02;101281.69;6178274;23;19912;-77
2022/05/11 07:27:34;;;;;;;;;;;;;;;25.44;29.00;101279.56;6180221;23;19924;-77
2022/05/11 07:29:59;;;;;;;;;;;;;;;25.47;28.79;101281.84;6208184;23;20304;-77
2022/05/11 07:32:27;;;;;;;;;;;;;;;25.40;29.09;101280.31;6181889;23;19912;-77
2022/05/11 07:34:52;;;;;;;;;;;;;;;25.04;29.33;101291.38;6207913;23;20350;-77
2022/05/11 07:37:17;;;;;;;;;;;;;;;24.75;29.92;101278.63;6182313;23;19928;-74
2022/05/11 07:39:43;;;;;;;;;;;;;;;25.33;29.14;101296.94;6181369;23;19965;-77
2022/05/11 07:42:08;;;;;;;;;;;;;;;25.18;29.23;101296.66;6181811;23;20392;-77
2022/05/11 07:44:34;;;;;;;;;;;;;;;24.84;30.06;101293.66;6181762;23;19919;-77
2022/05/11 07:47:00;;;;;;;;;;;;;;;24.63;30.18;101293.22;6208558;23;19912;-76
2022/05/11 07:49:26;;;;;;;;;;;;;;;25.14;29.56;101288.00;6207067;23;19912;-76
2022/05/11 07:51:52;;;;;;;;;;;;;;;25.33;30.00;101290.63;6156774;23;19978;-78
2022/05/11 07:54:19;;;;;;;;;;;;;;;24.59;31.39;101296.69;6157097;22;19938;-77
2022/05/11 08:02:14;;;;;;;;;;;;;;;24.62;31.37;101286.03;6185654;23;19930;-78
2022/05/11 08:04:41;;;;;;;;;;;;;;;24.29;32.35;101291.25;6208019;23;19912;-76
2022/05/11 08:07:07;;;;;;;;;;;;;;;24.17;32.40;101275.59;6181664;22;19915;-77
2022/05/11 08:09:32;;;;;;;;;;;;;;;23.93;32.70;101282.94;6180906;23;19958;-78
2022/05/11 08:11:58;;;;;;;;;;;;;;;24.26;32.96;101283.50;6181203;22;19962;-76
2022/05/11 08:14:23;;;;;;;;;;;;;;;24.79;32.45;101274.31;6156668;23;19923;-77
2022/05/11 08:16:52;;;;;;;;;;;;;;;25.33;31.66;101268.59;6156935;22;19980;-78
2022/05/11 08:19:21;;;;;;;;;;;;;;;25.10;31.84;101275.84;6208065;23;19912;-77
2022/05/11 08:21:48;;;;;;;;;;;;;;;24.84;32.37;101272.53;6181820;23;19931;-78
2022/05/11 08:24:15;;;;;;;;;;;;;;;24.11;33.65;101273.78;6181021;23;19913;-75
2022/05/11 08:26:41;;;;;;;;;;;;;;;24.01;33.77;101268.03;6207804;23;19916;-75
2022/05/11 08:29:06;;;;;;;;;;;;;;;24.34;33.45;101272.13;6181231;23;19919;-76
2022/05/11 08:34:17;;;;;;;;;;;;;;;25.35;31.89;101270.03;6188919;23;19931;-80
2022/05/11 08:36:45;;;;;;;;;;;;;;;24.95;32.26;101270.81;6192347;22;19959;-79
2022/05/11 08:39:11;;;;;;;;;;;;;;;25.45;31.78;101269.38;6157476;23;19923;-78
2022/05/11 08:41:48;;;;;;;;;;;;;;;25.82;31.23;101271.72;6156242;23;19912;-77
2022/05/11 08:44:14;;;;;;;;;;;;;;;26.20;30.19;101267.44;6182046;23;19912;-76
2022/05/11 08:46:51;;;;;;;;;;;;;;;26.23;29.01;101262.28;6207371;23;19916;-77
2022/05/11 08:49:35;;;;;;;;;;;;;;;26.29;28.69;101266.81;6206238;23;19948;-77
2022/05/11 08:52:02;;;;;;;;;;;;;;;25.64;29.92;101267.28;6207323;22;19912;-76
2022/05/11 08:54:37;;;;;;;;;;;;;;;25.94;30.08;101266.19;6179116;23;19918;-77
2022/05/11 08:57:05;;;;;;;;;;;;;;;25.83;30.41;101268.75;6176637;23;19912;-78
2022/05/11 08:59:32;;;;;;;;;;;;;;;25.82;30.77;101267.06;6180625;23;19934;-77
2022/05/11 09:02:03;;;;;;;;;;;;;;;25.73;30.73;101273.22;6184300;23;19919;-80
2022/05/11 09:04:38;;;;;;;;;;;;;;;25.80;31.12;101269.25;6185591;23;20264;-77
2022/05/11 09:07:03;;;;;;;;;;;;;;;25.63;31.02;101268.34;6180856;23;19947;-78
2022/05/11 09:09:29;;;;;;;;;;;;;;;25.88;30.31;101268.03;6206399;23;19919;-78
2022/05/11 09:11:55;;;;;;;;;;;;;;;26.06;28.49;101265.03;6151749;23;20332;-77
2022/05/11 09:14:33;;;;;;;;;;;;;;;26.19;28.03;101263.03;6205892;23;19919;-76
2022/05/11 09:16:58;;;;;;;;;;;;;;;26.04;28.15;101264.47;6203678;23;19916;-74
2022/05/11 09:19:26;;;;;;;;;;;;;;;25.91;28.38;101267.53;6206602;22;20209;-76
2022/05/11 09:22:09;;;;;;;;;;;;;;;25.72;28.65;101264.13;6207103;23;19995;-78
2022/05/11 09:24:55;;;;;;;;;;;;;;;25.71;28.46;101262.47;6206935;22;19954;-76
2022/05/11 09:27:31;;;;;;;;;;;;;;;26.30;28.36;101262.94;6178639;23;19923;-78
2022/05/11 09:29:56;;;;;;;;;;;;;;;26.50;27.90;101261.59;6181291;23;19991;-77
2022/05/11 09:32:37;;;;;;;;;;;;;;;27.03;27.16;101265.69;6208095;22;19950;-76
2022/05/11 09:35:35;;;;;;;;;;;;;;;27.34;26.79;101266.91;6181054;22;19940;-78
2022/05/11 09:38:02;;;;;;;;;;;;;;;28.16;25.65;101275.22;6156355;23;19927;-79
2022/05/11 09:40:29;;;;;;;;;;;;;;;27.21;27.01;101272.00;6181614;22;19949;-79
2022/05/11 09:42:59;;;;;;;;;;;;;;;27.99;26.74;101269.81;6181508;23;19916;-78
2022/05/11 09:45:44;;;;;;;;;;;;;;;27.46;28.23;101275.03;6208212;23;19912;-79
2022/05/11 09:48:12;;;;;;;;;;;;;;;28.63;27.86;101266.16;6207780;22;19916;-77
2022/05/11 09:50:38;;;;;;;;;;;;;;;28.65;27.22;101275.03;6181627;22;19930;-75
2022/05/11 09:53:15;;;;;;;;;;;;;;;28.99;25.79;101269.16;6207845;22;19943;-77
2022/05/11 09:55:41;;;;;;;;;;;;;;;29.49;24.48;101267.69;6182817;22;20537;-75
2022/05/11 09:58:07;;;;;;;;;;;;;;;29.29;23.61;101267.63;6180871;22;19936;-76
2022/05/11 10:00:34;;;;;;;;;;;;;;;29.31;24.19;101262.66;6207832;22;19939;-77
2022/05/11 10:03:02;;;;;;;;;;;;;;;29.87;23.28;101268.34;6207245;23;19919;-77
2022/05/11 10:05:29;;;;;;;;;;;;;;;29.59;23.83;101259.38;6181634;22;19915;-79
2022/05/11 10:08:13;;;;;;;;;;;;;;;31.22;21.83;101253.97;6206813;23;19997;-78
2022/05/11 10:10:38;;;;;;;;;;;;;;;31.26;22.37;101250.34;6207766;22;19951;-77
2022/05/11 10:13:26;;;;;;;;;;;;;;;30.47;23.55;101254.75;6207547;22;19916;-77
2022/05/11 10:24:07;;;;;;;;;;;;;;;31.95;20.75;101244.91;6156670;22;20394;-76
2022/05/11 10:26:46;;;;;;;;;;;;;;;32.98;19.18;101245.56;6178319;23;19913;-74
2022/05/11 10:29:19;;;;;;;;;;;;;;;33.29;18.28;101239.59;6178885;23;19948;-76
2022/05/11 10:32:03;;;;;;;;;;;;;;;34.84;17.07;101241.47;6176683;22;20186;-77
2022/05/11 10:34:42;;;;;;;;;;;;;;;35.75;16.25;101239.78;6151916;23;20289;-77
2022/05/11 10:37:27;;;;;;;;;;;;;;;34.47;17.73;101240.53;6178828;23;19912;-77
2022/05/11 10:39:56;;;;;;;;;;;;;;;33.70;18.67;101244.59;6194178;23;19920;-75
2022/05/11 10:42:24;;;;;;;;;;;;;;;31.86;20.71;101236.34;6178749;22;19913;-78
2022/05/11 10:44:50;;;;;;;;;;;;;;;31.94;21.12;101237.69;6178721;23;19908;-77
2022/05/11 10:47:20;;;;;;;;;;;;;;;32.51;20.49;101230.53;6178102;22;19912;-74
2022/05/11 10:49:53;;;;;;;;;;;;;;;32.78;19.28;101234.69;6152667;23;19934;-76
2022/05/11 10:52:27;;;;;;;;;;;;;;;32.03;20.30;101236.00;6152514;22;19913;-76
2022/05/11 10:55:12;;;;;;;;;;;;;;;32.85;19.70;101232.38;6178136;23;19913;-76
2022/05/11 10:57:50;;;;;;;;;;;;;;;33.33;18.79;101228.69;6176593;23;19919;-77
2022/05/11 11:00:19;;;;;;;;;;;;;;;33.88;18.46;101233.72;6150853;23;19916;-77
2022/05/11 11:02:59;;;;;;;;;;;;;;;32.63;20.07;101237.63;6150866;22;20336;-76
2022/05/11 11:05:26;;;;;;;;;;;;;;;32.23;20.20;101245.25;6176518;23;19916;-77
2022/05/11 11:08:00;;;;;;;;;;;;;;;31.14;20.20;101238.75;6150798;23;19912;-76
2022/05/11 11:10:28;;;;;;;;;;;;;;;31.88;20.17;101236.06;6179480;23;19917;-77
2022/05/11 11:13:13;;;;;;;;;;;;;;;32.18;20.67;101238.63;6176763;23;19940;-75
2022/05/11 11:15:44;;;;;;;;;;;;;;;30.16;23.20;101229.81;6202524;23;19915;-77
2022/05/11 11:18:11;;;;;;;;;;;;;;;31.95;21.26;101228.22;6181067;22;19943;-78
2022/05/11 11:20:37;;;;;;;;;;;;;;;32.36;20.94;101236.22;6205079;23;19912;-77
2022/05/11 11:23:12;;;;;;;;;;;;;;;30.36;22.43;101230.91;6180409;22;19915;-81
2022/05/11 11:25:42;;;;;;;;;;;;;;;27.29;26.20;101228.22;6207943;22;19932;-78
2022/05/11 11:28:14;;;;;;;;;;;;;;;26.33;28.19;101231.28;6206767;22;19916;-79
2022/05/11 11:30:41;;;;;;;;;;;;;;;26.78;27.65;101226.72;6207659;23;19916;-80
2022/05/11 11:33:13;;;;;;;;;;;;;;;26.37;29.28;101217.84;6182585;23;19916;-80
2022/05/11 11:35:58;;;;;;;;;;;;;;;25.49;31.25;101219.09;6208074;22;19912;-82
2022/05/11 11:38:29;;;;;;;;;;;;;;;23.44;36.04;101219.03;6179546;22;20003;-84
2022/05/11 11:41:11;;;;;;;;;;;;;;;22.78;36.40;101226.19;6206993;23;19912;-83
2022/05/11 11:43:51;;;;;;;;;;;;;;;23.36;35.98;101214.69;6179601;22;19912;-81
2022/05/11 11:46:32;;;;;;;;;;;;;;;23.56;35.88;101208.91;6207813;23;20344;-82
2022/05/11 11:49:21;;;;;;;;;;;;;;;23.67;35.22;101206.44;6206451;22;19943;-80
2022/05/11 11:51:58;;;;;;;;;;;;;;;23.49;33.05;101210.09;6172611;23;19911;-84
2022/05/11 11:54:28;;;;;;;;;;;;;;;23.07;31.46;101202.63;6191001;22;19919;-85
2022/05/11 11:56:54;;;;;;;;;;;;;;;23.36;31.98;101205.63;6206314;23;19916;-81
2022/05/11 11:59:23;;;;;;;;;;;;;;;23.28;32.43;101193.06;6154722;23;19916;-85
2022/05/11 12:01:48;;;;;;;;;;;;;;;23.78;31.64;101190.00;6206499;23;19943;-84
2022/05/11 12:04:30;;;;;;;;;;;;;;;23.88;31.37;101188.59;6156076;23;19919;-83
2022/05/11 12:15:21;;;;;;;;;;;;;;;23.15;30.33;101172.13;6165643;22;19923;-81
2022/05/11 12:17:47;;;;;;;;;;;;;;;22.99;30.13;101181.00;6152797;23;19962;-82
2022/05/11 12:20:17;;;;;;;;;;;;;;;23.33;29.87;101174.00;6152622;23;20277;-82
2022/05/11 12:22:47;;;;;;;;;;;;;;;23.56;28.55;101170.50;6178473;23;19920;-83
2022/05/11 12:25:26;;;;;;;;;;;;;;;23.78;27.89;101165.31;6177573;23;20090;-81
2022/05/11 12:27:53;;;;;;;;;;;;;;;23.20;26.90;101162.38;6177698;23;19934;-80
2022/05/11 12:30:32;;;;;;;;;;;;;;;23.16;27.85;101170.25;6127591;23;20257;-79
2022/05/11 12:33:02;;;;;;;;;;;;;;;23.10;28.27;101171.16;6184184;23;19983;-81
2022/05/11 12:35:29;;;;;;;;;;;;;;;22.64;28.21;101165.19;6153584;23;19966;-82
2022/05/11 12:38:03;;;;;;;;;;;;;;;22.82;29.06;101172.53;6150877;23;19948;-81
2022/05/11 12:40:28;;;;;;;;;;;;;;;23.03;29.21;101174.00;6150922;22;19999;-80
2022/05/11 12:42:56;;;;;;;;;;;;;;;22.53;28.99;101163.22;6155248;23;19923;-82
2022/05/11 12:45:21;;;;;;;;;;;;;;;22.47;29.70;101166.84;6152013;23;19921;-83
2022/05/11 12:47:48;;;;;;;;;;;;;;;22.63;29.84;101173.63;6178279;23;19913;-82
2022/05/11 12:50:25;;;;;;;;;;;;;;;22.45;29.03;101171.72;6176730;23;19955;-86
2022/05/11 12:53:14;;;;;;;;;;;;;;;22.13;29.33;101172.63;6182800;23;19928;-83
2022/05/11 12:55:39;;;;;;;;;;;;;;;22.33;29.24;101155.19;6160347;23;19913;-87
2022/05/11 12:58:05;;;;;;;;;;;;;;;22.42;28.78;101156.56;6152795;23;19934;-84
2022/05/11 13:00:33;;;;;;;;;;;;;;;22.43;27.69;101157.41;6161099;23;20388;-87
2022/05/11 13:03:20;;;;;;;;;;;;;;;22.29;28.34;101154.00;6183432;23;19923;-89
2022/05/11 13:05:45;;;;;;;;;;;;;;;21.75;28.33;101152.75;6154003;23;19916;-90
2022/05/11 13:08:14;;;;;;;;;;;;;;;21.82;28.75;101142.59;6156080;23;19943;-89
2022/05/11 13:10:40;;;;;;;;;;;;;;;21.97;28.16;101148.56;6153978;23;19916;-88
2022/05/11 13:13:11;;;;;;;;;;;;;;;21.74;28.45;101148.34;6155452;22;19982;-91
2022/05/11 13:15:44;;;;;;;;;;;;;;;21.26;28.94;101136.88;6175297;23;19982;-88
2022/05/11 13:18:11;;;;;;;;;;;;;;;20.74;29.86;101133.34;6153770;23;19913;-89
2022/05/11 13:20:38;;;;;;;;;;;;;;;20.91;29.92;101141.06;6184268;23;19932;-88
2022/05/11 13:23:05;;;;;;;;;;;;;;;20.76;30.83;101147.66;6186296;23;19916;-90